createdAt,value
2017-03-12T00:00:00.743Z,1043.19
2017-03-12T00:01:00.728Z,1043.21
2017-03-12T00:02:00.715Z,1043.17
2017-03-12T00:03:00.701Z,1043.21
2017-03-12T00:04:00.686Z,1043.23
2017-03-12T00:05:00.671Z,1043.26
2017-03-12T00:06:00.656Z,1043.24
2017-03-12T00:07:00.643Z,1043.27
2017-03-12T00:08:00.628Z,1043.24
2017-03-12T00:09:00.614Z,1043.24
2017-03-12T00:10:00.599Z,1043.26
2017-03-12T00:11:00.584Z,1043.23
2017-03-12T00:12:00.572Z,1043.24
2017-03-12T00:13:00.558Z,1043.26
2017-03-12T00:14:00.542Z,1043.25
2017-03-12T00:15:00.527Z,1043.19
2017-03-12T00:16:00.512Z,1043.23
2017-03-12T00:17:00.498Z,1043.21
2017-03-12T00:18:00.484Z,1043.2
2017-03-12T00:19:00.470Z,1043.23
2017-03-12T00:20:00.455Z,1043.22
2017-03-12T00:21:00.441Z,1043.25
2017-03-12T00:22:00.426Z,1043.22
2017-03-12T00:23:00.411Z,1043.22
2017-03-12T00:24:00.397Z,1043.23
2017-03-12T00:25:00.382Z,1043.23
2017-03-12T00:26:00.367Z,1043.26
2017-03-12T00:27:00.353Z,1043.23
2017-03-12T00:28:00.339Z,1043.24
2017-03-12T00:29:00.325Z,1043.26
2017-03-12T00:30:00.309Z,1043.29
2017-03-12T00:31:00.295Z,1043.28
2017-03-12T00:32:00.281Z,1043.25
2017-03-12T00:33:00.267Z,1043.26
2017-03-12T00:34:00.254Z,1043.23
2017-03-12T00:35:00.237Z,1043.21
2017-03-12T00:36:00.223Z,1043.19
2017-03-12T00:37:00.207Z,1043.24
2017-03-12T00:38:00.193Z,1043.21
2017-03-12T00:39:00.180Z,1043.2
2017-03-12T00:40:00.165Z,1043.21
2017-03-12T00:41:00.150Z,1043.24
2017-03-12T00:42:00.135Z,1043.23
2017-03-12T00:43:00.121Z,1043.2
2017-03-12T00:44:00.107Z,1043.19
2017-03-12T00:45:00.091Z,1043.19
2017-03-12T00:46:00.077Z,1043.2
2017-03-12T00:47:00.062Z,1043.23
2017-03-12T00:48:00.048Z,1043.21
2017-03-12T00:49:00.033Z,1043.26
2017-03-12T00:50:00.019Z,1043.26
2017-03-12T00:51:00.004Z,1043.3
2017-03-12T00:51:59.988Z,1043.3
2017-03-12T00:52:59.979Z,1043.31
2017-03-12T00:53:59.959Z,1043.34
2017-03-12T00:54:59.945Z,1043.37
2017-03-12T00:55:59.930Z,1043.34
2017-03-12T00:56:59.915Z,1043.33
2017-03-12T00:57:59.901Z,1043.34
2017-03-12T00:58:59.885Z,1043.34
2017-03-12T00:59:59.871Z,1043.33
2017-03-12T01:00:59.856Z,1043.31
2017-03-12T01:01:59.842Z,1043.32
2017-03-12T01:02:59.827Z,1043.3
2017-03-12T01:03:59.812Z,1043.32
2017-03-12T01:04:59.798Z,1043.28
2017-03-12T01:05:59.782Z,1043.26
2017-03-12T01:06:59.768Z,1043.29
2017-03-12T01:07:59.753Z,1043.25
2017-03-12T01:08:59.738Z,1043.23
2017-03-12T01:09:59.723Z,1043.24
2017-03-12T01:10:59.708Z,1043.27
2017-03-12T01:11:59.694Z,1043.21
2017-03-12T01:12:59.679Z,1043.26
2017-03-12T01:13:59.664Z,1043.3
2017-03-12T01:14:59.649Z,1043.26
2017-03-12T01:15:59.635Z,1043.28
2017-03-12T01:16:59.621Z,1043.29
2017-03-12T01:17:59.605Z,1043.3
2017-03-12T01:18:59.590Z,1043.3
2017-03-12T01:19:59.576Z,1043.3
2017-03-12T01:20:59.560Z,1043.3
2017-03-12T01:21:59.546Z,1043.31
2017-03-12T01:22:59.538Z,1043.3
2017-03-12T01:23:59.516Z,1043.34
2017-03-12T01:24:59.501Z,1043.36
2017-03-12T01:25:59.486Z,1043.37
2017-03-12T01:26:59.472Z,1043.33
2017-03-12T01:27:59.457Z,1043.35
2017-03-12T01:28:59.443Z,1043.36
2017-03-12T01:29:59.427Z,1043.38
2017-03-12T01:30:59.414Z,1043.34
2017-03-12T01:31:59.399Z,1043.4
2017-03-12T01:32:59.383Z,1043.3
2017-03-12T01:33:59.368Z,1043.29
2017-03-12T01:34:59.354Z,1043.26
2017-03-12T01:35:59.339Z,1043.27
2017-03-12T01:36:59.324Z,1043.27
2017-03-12T01:37:59.309Z,1043.26
2017-03-12T01:38:59.294Z,1043.25
2017-03-12T01:39:59.279Z,1043.24
2017-03-12T01:40:59.265Z,1043.26
2017-03-12T01:41:59.250Z,1043.28
2017-03-12T01:42:59.235Z,1043.27
2017-03-12T01:43:59.221Z,1043.3
2017-03-12T01:44:59.207Z,1043.27
2017-03-12T01:45:59.190Z,1043.23
2017-03-12T01:46:59.175Z,1043.28
2017-03-12T01:47:59.160Z,1043.28
2017-03-12T01:48:59.146Z,1043.23
2017-03-12T01:49:59.130Z,1043.18
2017-03-12T01:50:59.114Z,1043.16
2017-03-12T01:51:59.102Z,1043.12
2017-03-12T01:52:59.086Z,1043.15
2017-03-12T01:53:59.071Z,1043.14
2017-03-12T01:54:59.056Z,1043.15
2017-03-12T01:55:59.041Z,1043.14
2017-03-12T01:56:59.026Z,1043.08
2017-03-12T01:57:59.011Z,1043.09
2017-03-12T01:58:58.999Z,1043.12
2017-03-12T01:59:58.981Z,1043.13
2017-03-12T02:00:58.966Z,1043.11
2017-03-12T02:01:58.951Z,1043.09
2017-03-12T02:02:58.936Z,1043.1
2017-03-12T02:03:58.922Z,1043.11
2017-03-12T02:04:58.906Z,1043.16
2017-03-12T02:05:58.892Z,1043.15
2017-03-12T02:06:58.877Z,1043.13
2017-03-12T02:07:58.862Z,1043.12
2017-03-12T02:08:58.847Z,1043.13
2017-03-12T02:09:58.832Z,1043.16
2017-03-12T02:10:58.817Z,1043.21
2017-03-12T02:11:58.801Z,1043.2
2017-03-12T02:12:58.787Z,1043.22
2017-03-12T02:13:58.771Z,1043.24
2017-03-12T02:14:58.758Z,1043.29
2017-03-12T02:15:58.741Z,1043.28
2017-03-12T02:16:58.726Z,1043.27
2017-03-12T02:17:58.712Z,1043.26
2017-03-12T02:18:58.697Z,1043.26
2017-03-12T02:19:58.681Z,1043.3
2017-03-12T02:20:58.666Z,1043.28
2017-03-12T02:21:58.650Z,1043.25
2017-03-12T02:22:58.636Z,1043.28
2017-03-12T02:23:58.621Z,1043.28
2017-03-12T02:24:58.605Z,1043.27
2017-03-12T02:25:58.592Z,1043.26
2017-03-12T02:26:58.576Z,1043.28
2017-03-12T02:27:58.560Z,1043.33
2017-03-12T02:28:58.546Z,1043.28
2017-03-12T02:29:58.531Z,1043.31
2017-03-12T02:30:58.515Z,1043.33
2017-03-12T02:31:58.500Z,1043.32
2017-03-12T02:32:58.486Z,1043.33
2017-03-12T02:33:58.470Z,1043.32
2017-03-12T02:34:58.454Z,1043.31
2017-03-12T02:35:58.438Z,1043.3
2017-03-12T02:36:58.424Z,1043.3
2017-03-12T02:37:58.412Z,1043.31
2017-03-12T02:38:58.394Z,1043.34
2017-03-12T02:39:58.379Z,1043.29
2017-03-12T02:40:58.364Z,1043.33
2017-03-12T02:41:58.349Z,1043.33
2017-03-12T02:42:58.333Z,1043.33
2017-03-12T02:43:58.319Z,1043.36
2017-03-12T02:44:58.306Z,1043.36
2017-03-12T02:45:58.287Z,1043.37
2017-03-12T02:46:58.273Z,1043.43
2017-03-12T02:47:58.258Z,1043.39
2017-03-12T02:48:58.242Z,1043.46
2017-03-12T02:49:58.227Z,1043.45
2017-03-12T02:50:58.217Z,1043.43
2017-03-12T02:51:58.197Z,1043.41
2017-03-12T02:52:58.181Z,1043.43
2017-03-12T02:53:58.166Z,1043.44
2017-03-12T02:54:58.151Z,1043.45
2017-03-12T02:55:58.135Z,1043.44
2017-03-12T02:56:58.119Z,1043.44
2017-03-12T02:57:58.108Z,1043.4
2017-03-12T02:58:58.089Z,1043.42
2017-03-12T02:59:58.073Z,1043.41
2017-03-12T03:00:58.058Z,1043.46
2017-03-12T03:01:58.043Z,1043.47
2017-03-12T03:02:58.028Z,1043.48
2017-03-12T03:03:58.013Z,1043.47
2017-03-12T03:04:57.997Z,1043.46
2017-03-12T03:05:57.983Z,1043.42
2017-03-12T03:06:57.967Z,1043.42
2017-03-12T03:07:57.951Z,1043.45
2017-03-12T03:08:57.936Z,1043.44
2017-03-12T03:09:57.921Z,1043.43
2017-03-12T03:10:57.905Z,1043.42
2017-03-12T03:11:57.889Z,1043.41
2017-03-12T03:12:57.874Z,1043.42
2017-03-12T03:13:57.859Z,1043.41
2017-03-12T03:14:57.843Z,1043.39
2017-03-12T03:15:57.827Z,1043.37
2017-03-12T03:16:57.812Z,1043.37
2017-03-12T03:17:57.797Z,1043.34
2017-03-12T03:18:57.781Z,1043.35
2017-03-12T03:19:57.766Z,1043.33
2017-03-12T03:20:57.750Z,1043.3
2017-03-12T03:21:57.734Z,1043.32
2017-03-12T03:22:57.719Z,1043.3
2017-03-12T03:23:57.704Z,1043.33
2017-03-12T03:24:57.687Z,1043.32
2017-03-12T03:25:57.673Z,1043.34
2017-03-12T03:26:57.657Z,1043.36
2017-03-12T03:27:57.642Z,1043.35
2017-03-12T03:28:57.625Z,1043.35
2017-03-12T03:29:57.612Z,1043.39
2017-03-12T03:30:57.596Z,1043.38
2017-03-12T03:31:57.580Z,1043.35
2017-03-12T03:32:57.564Z,1043.34
2017-03-12T03:33:57.551Z,1043.35
2017-03-12T03:34:57.534Z,1043.32
2017-03-12T03:35:57.517Z,1043.31
2017-03-12T03:36:57.502Z,1043.29
2017-03-12T03:37:57.487Z,1043.26
2017-03-12T03:38:57.472Z,1043.28
2017-03-12T03:39:57.455Z,1043.26
2017-03-12T03:40:57.443Z,1043.25
2017-03-12T03:41:57.425Z,1043.24
2017-03-12T03:42:57.410Z,1043.25
2017-03-12T03:43:57.394Z,1043.28
2017-03-12T03:44:57.379Z,1043.28
2017-03-12T03:45:57.363Z,1043.29
2017-03-12T03:46:57.347Z,1043.24
2017-03-12T03:47:57.332Z,1043.23
2017-03-12T03:48:57.318Z,1043.21
2017-03-12T03:49:57.301Z,1043.17
2017-03-12T03:50:57.286Z,1043.15
2017-03-12T03:51:57.270Z,1043.16
2017-03-12T03:52:57.255Z,1043.12
2017-03-12T03:53:57.243Z,1043.12
2017-03-12T03:54:57.224Z,1043.13
2017-03-12T03:55:57.209Z,1043.07
2017-03-12T03:56:57.194Z,1043.11
2017-03-12T03:57:57.177Z,1043.1
2017-03-12T03:58:57.162Z,1043.16
2017-03-12T03:59:57.147Z,1043.19
2017-03-12T04:00:57.131Z,1043.16
2017-03-12T04:01:57.116Z,1043.18
2017-03-12T04:02:57.100Z,1043.18
2017-03-12T04:03:57.085Z,1043.18
2017-03-12T04:04:57.070Z,1043.22
2017-03-12T04:05:57.054Z,1043.17
2017-03-12T04:06:57.039Z,1043.22
2017-03-12T04:07:57.024Z,1043.22
2017-03-12T04:08:57.007Z,1043.24
2017-03-12T04:09:56.993Z,1043.2
2017-03-12T04:10:56.977Z,1043.29
2017-03-12T04:11:56.961Z,1043.29
2017-03-12T04:12:56.945Z,1043.29
2017-03-12T04:13:56.930Z,1043.27
2017-03-12T04:14:56.915Z,1043.3
2017-03-12T04:15:56.900Z,1043.29
2017-03-12T04:16:56.884Z,1043.26
2017-03-12T04:17:56.869Z,1043.27
2017-03-12T04:18:56.854Z,1043.26
2017-03-12T04:19:56.837Z,1043.23
2017-03-12T04:20:56.822Z,1043.22
2017-03-12T04:21:56.807Z,1043.23
2017-03-12T04:22:56.792Z,1043.23
2017-03-12T04:23:56.776Z,1043.21
2017-03-12T04:24:56.760Z,1043.22
2017-03-12T04:25:56.745Z,1043.21
2017-03-12T04:26:56.730Z,1043.2
2017-03-12T04:27:56.713Z,1043.24
2017-03-12T04:28:56.699Z,1043.25
2017-03-12T04:29:56.683Z,1043.26
2017-03-12T04:30:56.667Z,1043.26
2017-03-12T04:31:56.652Z,1043.26
2017-03-12T04:32:56.637Z,1043.25
2017-03-12T04:33:56.622Z,1043.25
2017-03-12T04:34:56.606Z,1043.29
2017-03-12T04:35:56.590Z,1043.32
2017-03-12T04:36:56.575Z,1043.29
2017-03-12T04:37:56.560Z,1043.35
2017-03-12T04:38:56.544Z,1043.35
2017-03-12T04:39:56.542Z,1043.34
2017-03-12T04:40:56.515Z,1043.43
2017-03-12T04:41:56.498Z,1043.46
2017-03-12T04:42:56.483Z,1043.46
2017-03-12T04:43:56.468Z,1043.48
2017-03-12T04:44:56.452Z,1043.52
2017-03-12T04:45:56.436Z,1043.52
2017-03-12T04:46:56.421Z,1043.56
2017-03-12T04:47:56.406Z,1043.54
2017-03-12T04:48:56.389Z,1043.55
2017-03-12T04:49:56.374Z,1043.53
2017-03-12T04:50:56.359Z,1043.56
2017-03-12T04:51:56.342Z,1043.58
2017-03-12T04:52:56.327Z,1043.58
2017-03-12T04:53:56.312Z,1043.6
2017-03-12T04:54:56.297Z,1043.59
2017-03-12T04:55:56.281Z,1043.57
2017-03-12T04:56:56.265Z,1043.54
2017-03-12T04:57:56.250Z,1043.53
2017-03-12T04:58:56.234Z,1043.54
2017-03-12T04:59:56.218Z,1043.57
2017-03-12T05:00:56.203Z,1043.59
2017-03-12T05:01:56.187Z,1043.6
2017-03-12T05:02:56.172Z,1043.61
2017-03-12T05:03:56.155Z,1043.62
2017-03-12T05:04:56.140Z,1043.63
2017-03-12T05:05:56.125Z,1043.62
2017-03-12T05:06:56.109Z,1043.62
2017-03-12T05:07:56.093Z,1043.62
2017-03-12T05:08:56.078Z,1043.64
2017-03-12T05:09:56.062Z,1043.61
2017-03-12T05:10:56.045Z,1043.61
2017-03-12T05:11:56.035Z,1043.63
2017-03-12T05:12:56.015Z,1043.69
2017-03-12T05:13:55.999Z,1043.64
2017-03-12T05:14:55.983Z,1043.65
2017-03-12T05:15:55.969Z,1043.65
2017-03-12T05:16:55.953Z,1043.63
2017-03-12T05:17:55.937Z,1043.65
2017-03-12T05:18:55.921Z,1043.67
2017-03-12T05:19:55.904Z,1043.69
2017-03-12T05:20:55.890Z,1043.65
2017-03-12T05:21:55.874Z,1043.69
2017-03-12T05:22:55.858Z,1043.7
2017-03-12T05:23:55.843Z,1043.67
2017-03-12T05:24:55.827Z,1043.64
2017-03-12T05:25:55.811Z,1043.65
2017-03-12T05:26:55.795Z,1043.65
2017-03-12T05:27:55.780Z,1043.64
2017-03-12T05:28:55.765Z,1043.65
2017-03-12T05:29:55.749Z,1043.65
2017-03-12T05:30:55.733Z,1043.63
2017-03-12T05:31:55.718Z,1043.63
2017-03-12T05:32:55.702Z,1043.59
2017-03-12T05:33:55.686Z,1043.62
2017-03-12T05:34:55.672Z,1043.6
2017-03-12T05:35:55.655Z,1043.63
2017-03-12T05:36:55.639Z,1043.6
2017-03-12T05:37:55.624Z,1043.53
2017-03-12T05:38:55.608Z,1043.54
2017-03-12T05:39:55.593Z,1043.56
2017-03-12T05:40:55.576Z,1043.49
2017-03-12T05:41:55.565Z,1043.49
2017-03-12T05:42:55.548Z,1043.52
2017-03-12T05:43:55.530Z,1043.48
2017-03-12T05:44:55.513Z,1043.47
2017-03-12T05:45:55.499Z,1043.46
2017-03-12T05:46:55.484Z,1043.42
2017-03-12T05:47:55.466Z,1043.38
2017-03-12T05:48:55.452Z,1043.34
2017-03-12T05:49:55.437Z,1043.31
2017-03-12T05:50:55.421Z,1043.23
2017-03-12T05:51:55.405Z,1043.12
2017-03-12T05:52:55.389Z,1042.97
2017-03-12T05:53:55.375Z,1042.82
2017-03-12T05:54:55.359Z,1042.67
2017-03-12T05:55:55.344Z,1042.54
2017-03-12T05:56:55.329Z,1042.39
2017-03-12T05:57:55.314Z,1042.25
2017-03-12T05:58:55.298Z,1042.16
2017-03-12T05:59:55.284Z,1042.02
2017-03-12T06:00:55.269Z,1041.9
2017-03-12T06:01:55.255Z,1041.77
2017-03-12T06:02:55.239Z,1041.64
2017-03-12T06:03:55.224Z,1041.49
2017-03-12T06:04:55.210Z,1041.38
2017-03-12T06:05:55.195Z,1041.29
2017-03-12T06:06:55.180Z,1041.25
2017-03-12T06:07:55.167Z,1041.16
2017-03-12T06:08:55.153Z,1041.02
2017-03-12T06:09:55.139Z,1040.93
2017-03-12T06:10:55.125Z,1040.84
2017-03-12T06:11:55.112Z,1040.72
2017-03-12T06:12:55.099Z,1040.55
2017-03-12T06:13:55.086Z,1040.39
2017-03-12T06:14:55.073Z,1040.26
2017-03-12T06:15:55.060Z,1040.21
2017-03-12T06:16:55.047Z,1040.09
2017-03-12T06:17:55.034Z,1039.94
2017-03-12T06:18:55.026Z,1039.85
2017-03-12T06:19:55.009Z,1039.72
2017-03-12T06:20:54.996Z,1039.62
2017-03-12T06:21:54.984Z,1039.52
2017-03-12T06:22:54.973Z,1039.47
2017-03-12T06:23:54.960Z,1039.36
2017-03-12T06:24:54.948Z,1039.24
2017-03-12T06:25:54.936Z,1039.04
2017-03-12T06:26:54.925Z,1038.92
2017-03-12T06:27:54.913Z,1038.71
2017-03-12T06:28:54.902Z,1038.6
2017-03-12T06:29:54.891Z,1038.44
2017-03-12T06:30:54.880Z,1038.28
2017-03-12T06:31:54.869Z,1038.08
2017-03-12T06:32:54.858Z,1037.95
2017-03-12T06:33:54.847Z,1037.8
2017-03-12T06:34:54.836Z,1037.63
2017-03-12T06:35:54.826Z,1037.5
2017-03-12T06:36:54.816Z,1037.39
2017-03-12T06:37:54.805Z,1037.25
2017-03-12T06:38:54.796Z,1037.2
2017-03-12T06:39:54.785Z,1037.17
2017-03-12T06:40:54.776Z,1037.2
2017-03-12T06:41:54.767Z,1037.13
2017-03-12T06:42:54.755Z,1037.1
2017-03-12T06:43:54.747Z,1037
2017-03-12T06:44:54.739Z,1036.92
2017-03-12T06:45:54.729Z,1036.81
2017-03-12T06:46:54.720Z,1036.86
2017-03-12T06:47:54.711Z,1036.8
2017-03-12T06:48:54.702Z,1036.74
2017-03-12T06:49:54.694Z,1036.77
2017-03-12T06:50:54.686Z,1036.71
2017-03-12T06:51:54.678Z,1036.61
2017-03-12T06:52:54.669Z,1036.56
2017-03-12T06:53:54.660Z,1036.5
2017-03-12T06:54:54.651Z,1036.44
2017-03-12T06:55:54.645Z,1036.45
2017-03-12T06:56:54.636Z,1036.4
2017-03-12T06:57:54.628Z,1036.39
2017-03-12T06:58:54.621Z,1036.37
2017-03-12T06:59:54.613Z,1036.33
2017-03-12T07:00:54.605Z,1036.22
2017-03-12T07:01:54.598Z,1036.2
2017-03-12T07:02:54.590Z,1036.05
2017-03-12T07:03:54.583Z,1035.91
2017-03-12T07:04:54.574Z,1035.83
2017-03-12T07:05:54.567Z,1035.74
2017-03-12T07:06:54.567Z,1035.69
2017-03-12T07:07:54.553Z,1035.52
2017-03-12T07:08:54.546Z,1035.31
2017-03-12T07:09:54.539Z,1035.6
2017-03-12T07:10:54.532Z,1035.44
2017-03-12T07:11:54.523Z,1035.24
2017-03-12T07:12:54.517Z,1035.51
2017-03-12T07:13:54.511Z,1035.82
2017-03-12T07:14:54.505Z,1036.21
2017-03-12T07:15:54.496Z,1036.71
2017-03-12T07:16:54.490Z,1037.14
2017-03-12T07:17:54.484Z,1037.4
2017-03-12T07:18:54.475Z,1037.7
2017-03-12T07:19:54.467Z,1037.94
2017-03-12T07:20:54.460Z,1038.07
2017-03-12T07:21:54.453Z,1038.27
2017-03-12T07:22:54.444Z,1038.37
2017-03-12T07:23:54.436Z,1038.39
2017-03-12T07:24:54.429Z,1038.39
2017-03-12T07:25:54.420Z,1038.44
2017-03-12T07:26:54.411Z,1038.42
2017-03-12T07:27:54.403Z,1038.53
2017-03-12T07:28:54.394Z,1038.53
2017-03-12T07:29:54.384Z,1038.62
2017-03-12T07:30:54.375Z,1038.65
2017-03-12T07:31:54.366Z,1038.75
2017-03-12T07:32:54.357Z,1038.85
2017-03-12T07:33:54.347Z,1038.76
2017-03-12T07:34:54.338Z,1038.74
2017-03-12T07:35:54.329Z,1038.84
2017-03-12T07:36:54.319Z,1038.82
2017-03-12T07:37:54.309Z,1038.87
2017-03-12T07:38:54.299Z,1039.08
2017-03-12T07:39:54.290Z,1039.14
2017-03-12T07:40:54.279Z,1039.22
2017-03-12T07:41:54.269Z,1039.31
2017-03-12T07:42:54.260Z,1039.24
2017-03-12T07:43:54.250Z,1039.21
2017-03-12T07:44:54.238Z,1039.38
2017-03-12T07:45:54.228Z,1039.39
2017-03-12T07:46:54.219Z,1039.44
2017-03-12T07:47:54.209Z,1039.5
2017-03-12T07:48:54.200Z,1039.57
2017-03-12T07:49:54.189Z,1039.56
2017-03-12T07:50:54.178Z,1039.63
2017-03-12T07:51:54.167Z,1039.71
2017-03-12T07:52:54.157Z,1039.74
2017-03-12T07:53:54.146Z,1039.77
2017-03-12T07:54:54.137Z,1039.79
2017-03-12T07:55:54.124Z,1039.76
2017-03-12T07:56:54.112Z,1039.85
2017-03-12T07:57:54.103Z,1039.93
2017-03-12T07:58:54.092Z,1039.96
2017-03-12T07:59:54.085Z,1040.05
2017-03-12T08:00:54.070Z,1040.06
2017-03-12T08:01:54.059Z,1040.06
2017-03-12T08:02:54.048Z,1040.03
2017-03-12T08:03:54.037Z,1040.03
2017-03-12T08:04:54.026Z,1040.04
2017-03-12T08:05:54.015Z,1040.05
2017-03-12T08:06:54.004Z,1040.09
2017-03-12T08:07:53.993Z,1040.05
2017-03-12T08:08:53.981Z,1040.03
2017-03-12T08:09:53.970Z,1040.01
2017-03-12T08:10:53.959Z,1040.01
2017-03-12T08:11:53.948Z,1039.98
2017-03-12T08:12:53.937Z,1039.89
2017-03-12T08:13:53.926Z,1039.83
2017-03-12T08:14:53.914Z,1039.75
2017-03-12T08:15:53.904Z,1039.61
2017-03-12T08:16:53.893Z,1039.56
2017-03-12T08:17:53.881Z,1039.55
2017-03-12T08:18:53.870Z,1039.49
2017-03-12T08:19:53.860Z,1039.57
2017-03-12T08:20:53.847Z,1039.6
2017-03-12T08:21:53.836Z,1039.62
2017-03-12T08:22:53.826Z,1039.58
2017-03-12T08:23:53.815Z,1039.49
2017-03-12T08:24:53.803Z,1039.46
2017-03-12T08:25:53.794Z,1039.49
2017-03-12T08:26:53.782Z,1039.51
2017-03-12T08:27:53.772Z,1039.56
2017-03-12T08:28:53.759Z,1039.6
2017-03-12T08:29:53.748Z,1039.54
2017-03-12T08:30:53.738Z,1039.61
2017-03-12T08:31:53.726Z,1039.67
2017-03-12T08:32:53.715Z,1039.74
2017-03-12T08:33:53.704Z,1039.72
2017-03-12T08:34:53.693Z,1039.77
2017-03-12T08:35:53.683Z,1039.77
2017-03-12T08:36:53.671Z,1039.83
2017-03-12T08:37:53.662Z,1039.87
2017-03-12T08:38:53.650Z,1039.86
2017-03-12T08:39:53.638Z,1039.87
2017-03-12T08:40:53.627Z,1039.86
2017-03-12T08:41:53.617Z,1039.9
2017-03-12T08:42:53.605Z,1039.92
2017-03-12T08:43:53.594Z,1039.91
2017-03-12T08:44:53.583Z,1039.91
2017-03-12T08:45:53.572Z,1039.85
2017-03-12T08:46:53.560Z,1039.8
2017-03-12T08:47:53.550Z,1039.73
2017-03-12T08:48:53.544Z,1039.71
2017-03-12T08:49:53.528Z,1039.81
2017-03-12T08:50:53.518Z,1039.8
2017-03-12T08:51:53.505Z,1039.74
2017-03-12T08:52:53.497Z,1039.68
2017-03-12T08:53:53.483Z,1039.56
2017-03-12T08:54:53.472Z,1039.48
2017-03-12T08:55:53.462Z,1039.47
2017-03-12T08:56:53.451Z,1039.41
2017-03-12T08:57:53.439Z,1039.41
2017-03-12T08:58:53.428Z,1039.39
2017-03-12T08:59:53.418Z,1039.34
2017-03-12T09:00:53.407Z,1039.33
2017-03-12T09:01:53.396Z,1039.28
2017-03-12T09:02:53.385Z,1039.33
2017-03-12T09:03:53.374Z,1039.29
2017-03-12T09:04:53.362Z,1039.23
2017-03-12T09:05:53.352Z,1039.24
2017-03-12T09:06:53.343Z,1039.19
2017-03-12T09:07:53.331Z,1039.06
2017-03-12T09:08:53.319Z,1039.09
2017-03-12T09:09:53.309Z,1039.01
2017-03-12T09:10:53.299Z,1039.06
2017-03-12T09:11:53.288Z,1039.08
2017-03-12T09:12:53.277Z,1039.12
2017-03-12T09:13:53.266Z,1039.16
2017-03-12T09:14:53.256Z,1039.12
2017-03-12T09:15:53.244Z,1039.15
2017-03-12T09:16:53.234Z,1039.18
2017-03-12T09:17:53.223Z,1039.16
2017-03-12T09:18:53.213Z,1039.1
2017-03-12T09:19:53.200Z,1039.08
2017-03-12T09:20:53.191Z,1039.05
2017-03-12T09:21:53.181Z,1039.03
2017-03-12T09:22:53.170Z,1039.05
2017-03-12T09:23:53.161Z,1039.13
2017-03-12T09:24:53.150Z,1039.23
2017-03-12T09:25:53.139Z,1039.27
2017-03-12T09:26:53.128Z,1039.35
2017-03-12T09:27:53.118Z,1039.49
2017-03-12T09:28:53.107Z,1039.53
2017-03-12T09:29:53.097Z,1039.63
2017-03-12T09:30:53.087Z,1039.72
2017-03-12T09:31:53.075Z,1039.71
2017-03-12T09:32:53.065Z,1039.73
2017-03-12T09:33:53.053Z,1039.64
2017-03-12T09:34:53.043Z,1039.63
2017-03-12T09:35:53.032Z,1039.57
2017-03-12T09:36:53.022Z,1039.55
2017-03-12T09:37:53.015Z,1039.53
2017-03-12T09:38:53.000Z,1039.56
2017-03-12T09:39:52.988Z,1039.49
2017-03-12T09:40:52.979Z,1039.45
2017-03-12T09:41:52.967Z,1039.48
2017-03-12T09:42:52.956Z,1039.44
2017-03-12T09:43:52.946Z,1039.37
2017-03-12T09:44:52.936Z,1039.29
2017-03-12T09:45:52.925Z,1039.21
2017-03-12T09:46:52.915Z,1039.15
2017-03-12T09:47:52.904Z,1039.06
2017-03-12T09:48:52.892Z,1039.03
2017-03-12T09:49:52.882Z,1038.9
2017-03-12T09:50:52.872Z,1038.86
2017-03-12T09:51:52.862Z,1038.81
2017-03-12T09:52:52.850Z,1038.83
2017-03-12T09:53:52.841Z,1038.83
2017-03-12T09:54:52.830Z,1038.75
2017-03-12T09:55:52.819Z,1038.78
2017-03-12T09:56:52.810Z,1038.76
2017-03-12T09:57:52.798Z,1038.68
2017-03-12T09:58:52.789Z,1038.74
2017-03-12T09:59:52.778Z,1038.62
2017-03-12T10:00:52.768Z,1038.46
2017-03-12T10:01:52.758Z,1038.36
2017-03-12T10:02:52.748Z,1038.16
2017-03-12T10:03:52.741Z,1038.21
2017-03-12T10:04:52.726Z,1038.17
2017-03-12T10:05:52.718Z,1038.19
2017-03-12T10:06:52.707Z,1038.17
2017-03-12T10:07:52.697Z,1038.12
2017-03-12T10:08:52.688Z,1037.99
2017-03-12T10:09:52.679Z,1037.97
2017-03-12T10:10:52.668Z,1037.86
2017-03-12T10:11:52.659Z,1037.81
2017-03-12T10:12:52.649Z,1037.83
2017-03-12T10:13:52.640Z,1037.86
2017-03-12T10:14:52.629Z,1037.8
2017-03-12T10:15:52.621Z,1037.82
2017-03-12T10:16:52.612Z,1037.87
2017-03-12T10:17:52.602Z,1037.91
2017-03-12T10:18:52.592Z,1037.86
2017-03-12T10:19:52.583Z,1037.74
2017-03-12T10:20:52.575Z,1037.61
2017-03-12T10:21:52.564Z,1037.55
2017-03-12T10:22:52.556Z,1037.56
2017-03-12T10:23:52.547Z,1037.62
2017-03-12T10:24:52.537Z,1037.56
2017-03-12T10:25:52.528Z,1037.52
2017-03-12T10:26:52.519Z,1037.52
2017-03-12T10:27:52.510Z,1037.55
2017-03-12T10:28:52.500Z,1037.43
2017-03-12T10:29:52.491Z,1037.49
2017-03-12T10:30:52.486Z,1037.59
2017-03-12T10:31:52.474Z,1037.59
2017-03-12T10:32:52.464Z,1037.5
2017-03-12T10:33:52.455Z,1037.41
2017-03-12T10:34:52.446Z,1037.32
2017-03-12T10:35:52.441Z,1037.32
2017-03-12T10:36:52.678Z,1037.32
2017-03-12T10:37:52.419Z,1037.24
2017-03-12T10:38:52.411Z,1037.23
2017-03-12T10:39:52.401Z,1037.18
2017-03-12T10:40:52.395Z,1037.15
2017-03-12T10:41:52.383Z,1037.21
2017-03-12T10:42:52.375Z,1037.19
2017-03-12T10:43:52.366Z,1037.27
2017-03-12T10:44:52.357Z,1037.36
2017-03-12T10:45:52.348Z,1037.39
2017-03-12T10:46:52.341Z,1037.31
2017-03-12T10:47:52.330Z,1037.17
2017-03-12T10:48:52.322Z,1037.07
2017-03-12T10:49:52.313Z,1037.06
2017-03-12T10:50:52.303Z,1037.04
2017-03-12T10:51:52.294Z,1036.92
2017-03-12T10:52:52.287Z,1036.85
2017-03-12T10:53:52.278Z,1036.85
2017-03-12T10:54:52.269Z,1037.05
2017-03-12T10:55:52.260Z,1037.11
2017-03-12T10:56:52.251Z,1037.1
2017-03-12T10:57:52.243Z,1037.05
2017-03-12T10:58:52.235Z,1036.91
2017-03-12T10:59:52.226Z,1036.88
2017-03-12T11:00:52.220Z,1036.88
2017-03-12T11:01:52.209Z,1036.89
2017-03-12T11:02:52.200Z,1036.88
2017-03-12T11:03:52.192Z,1036.83
2017-03-12T11:04:52.184Z,1036.71
2017-03-12T11:05:52.175Z,1036.59
2017-03-12T11:06:52.166Z,1036.51
2017-03-12T11:07:52.158Z,1036.48
2017-03-12T11:08:52.149Z,1036.48
2017-03-12T11:09:52.141Z,1036.53
2017-03-12T11:10:52.136Z,1036.63
2017-03-12T11:11:52.125Z,1036.66
2017-03-12T11:12:52.116Z,1036.66
2017-03-12T11:13:52.107Z,1036.53
2017-03-12T11:14:52.100Z,1036.45
2017-03-12T11:15:52.091Z,1036.37
2017-03-12T11:16:52.082Z,1036.47
2017-03-12T11:17:52.075Z,1036.53
2017-03-12T11:18:52.067Z,1036.6
2017-03-12T11:19:52.058Z,1036.64
2017-03-12T11:20:52.050Z,1036.63
2017-03-12T11:21:52.041Z,1036.62
2017-03-12T11:22:52.035Z,1036.61
2017-03-12T11:23:52.025Z,1036.56
2017-03-12T11:24:52.017Z,1036.39
2017-03-12T11:25:52.011Z,1036.25
2017-03-12T11:26:52.002Z,1036.22
2017-03-12T11:27:51.993Z,1036.28
2017-03-12T11:28:51.985Z,1036.27
2017-03-12T11:29:51.977Z,1036.31
2017-03-12T11:30:51.969Z,1036.22
2017-03-12T11:31:51.960Z,1036.17
2017-03-12T11:32:51.953Z,1036.17
2017-03-12T11:33:51.948Z,1036.23
2017-03-12T11:34:51.936Z,1036.26
2017-03-12T11:35:51.929Z,1036.26
2017-03-12T11:36:51.921Z,1036.17
2017-03-12T11:37:51.916Z,1036.18
2017-03-12T11:38:51.904Z,1036.05
2017-03-12T11:39:51.897Z,1035.98
2017-03-12T11:40:51.890Z,1036.04
2017-03-12T11:41:51.881Z,1036.23
2017-03-12T11:42:51.874Z,1036.34
2017-03-12T11:43:51.866Z,1036.41
2017-03-12T11:44:51.859Z,1036.51
2017-03-12T11:45:51.849Z,1036.54
2017-03-12T11:46:51.842Z,1036.57
2017-03-12T11:47:51.835Z,1036.43
2017-03-12T11:48:51.827Z,1036.29
2017-03-12T11:49:51.818Z,1036.11
2017-03-12T11:50:51.810Z,1035.85
2017-03-12T11:51:51.803Z,1035.65
2017-03-12T11:52:51.794Z,1035.38
2017-03-12T11:53:51.787Z,1035.21
2017-03-12T11:54:51.779Z,1035.15
2017-03-12T11:55:51.772Z,1035.1
2017-03-12T11:56:51.764Z,1035.01
2017-03-12T11:57:51.756Z,1035.04
2017-03-12T11:58:51.749Z,1035.05
2017-03-12T11:59:51.742Z,1035.07
2017-03-12T12:00:51.734Z,1035.13
2017-03-12T12:01:51.731Z,1035.26
2017-03-12T12:02:51.721Z,1035.35
2017-03-12T12:03:51.712Z,1035.45
2017-03-12T12:04:51.706Z,1035.64
2017-03-12T12:05:51.698Z,1035.61
2017-03-12T12:06:51.690Z,1035.66